»·PEaware :: SWA7636 KBUR-KPDX

SWA7636 :: KBUR-KPDX

FLIGHT INFORMATION

Flight Status: Arrived
Operator:
Southwest Airlines
More flights by this operator :: More flights under this callsign
Pilot: Skye D. (10623)
Aircraft: BOEING 737-300
(B733)
More flights by this aircraft type
Origin: KBUR Bob Hope-Burbank
United States
Destination: KPDX Portland Intl
United States
More flights between these airports :: More routes between these airports
Route: +OROSZ2 CSTRO DUCKE LMT MOXEE TMBRS2
File this flight plan on PilotEdge
Remarks:
Altitude:
(Current/Filed)
36,000ft
Speed:
(Current/Filed)
444kts
Departed: 10-Feb-18 01:41 PM
Arrived: 10-Feb-18 04:03 PM
Distance/Time
Traveled:
710nm/2:22
Distance/Time
To Go:
Arrived

Flight Plot

Page will automatically refresh every two minutes.

Flight plan parsing failed; only flown route is shown


Map Options




Map Legend


Flown Route
Filed Route
Departure Airport
Arrival Airport
Navaid (VOR, NDB)
Fix

Horizontal Profiles

Position Reports

Time Latitude Longitude Heading Altitude Ground
Speed
10-Feb-18 13:21 34.196820 -118.352395 180 784ft 0kts
10-Feb-18 13:22 34.196820 -118.352395 180 784ft 0kts
10-Feb-18 13:23 34.196820 -118.352395 180 784ft 0kts
10-Feb-18 13:24 34.196820 -118.352395 180 784ft 0kts
10-Feb-18 13:25 34.196820 -118.352395 180 784ft 0kts
10-Feb-18 13:26 34.196820 -118.352395 180 784ft 0kts
10-Feb-18 13:27 34.196820 -118.352395 180 784ft 0kts
10-Feb-18 13:28 34.196820 -118.352395 180 784ft 0kts
10-Feb-18 13:29 34.196820 -118.352395 180 784ft 0kts
10-Feb-18 13:30 34.196820 -118.352395 180 784ft 0kts
10-Feb-18 13:31 34.196820 -118.352395 180 784ft 0kts
10-Feb-18 13:32 34.196820 -118.352395 180 784ft 0kts
10-Feb-18 13:33 34.196820 -118.352395 180 784ft 0kts
10-Feb-18 13:34 34.197068 -118.352359 233 784ft 1kts
10-Feb-18 13:35 34.197181 -118.351981 271 784ft 1kts
10-Feb-18 13:36 34.197181 -118.351945 266 784ft 0kts
10-Feb-18 13:37 34.197181 -118.351945 266 784ft 0kts
10-Feb-18 13:38 34.197181 -118.351945 266 784ft 0kts
10-Feb-18 13:39 34.197181 -118.351945 266 784ft 0kts
10-Feb-18 13:39 34.197181 -118.351945 266 784ft 0kts
10-Feb-18 13:41 34.197181 -118.351945 266 784ft 0kts
10-Feb-18 13:42 34.197499 -118.354549 302 784ft 19kts
10-Feb-18 13:42 34.200684 -118.355861 348 784ft 18kts
10-Feb-18 13:44 34.205837 -118.357287 347 784ft 19kts
10-Feb-18 13:45 34.209913 -118.358441 346 784ft 15kts
10-Feb-18 13:45 34.211691 -118.359210 299 784ft 5kts
10-Feb-18 13:46 34.211511 -118.360224 166 784ft 0kts
10-Feb-18 13:47 34.209012 -118.359526 166 784ft 88kts
10-Feb-18 13:48 34.180006 -118.360147 213 2453ft 181kts
10-Feb-18 13:49 34.160476 -118.399751 294 5484ft 179kts
10-Feb-18 13:50 34.199666 -118.413536 351 7534ft 226kts
10-Feb-18 13:51 34.254151 -118.419144 332 9211ft 266kts
10-Feb-18 13:52 34.300266 -118.482277 309 11262ft 309kts
10-Feb-18 13:53 34.351422 -118.559390 308 13977ft 326kts
10-Feb-18 13:54 34.405512 -118.641368 308 16282ft 335kts
10-Feb-18 13:55 34.484629 -118.685618 347 18574ft 353kts
10-Feb-18 13:56 34.576816 -118.703345 347 20771ft 362kts
10-Feb-18 13:57 34.671768 -118.721781 346 22732ft 371kts
10-Feb-18 13:58 34.762516 -118.760117 327 24453ft 372kts
10-Feb-18 13:59 34.840581 -118.814138 327 26021ft 376kts
10-Feb-18 14:00 34.921089 -118.869511 327 27317ft 385kts
10-Feb-18 14:01 35.005150 -118.927425 328 28523ft 392kts
10-Feb-18 14:02 35.088272 -118.984823 328 29966ft 389kts
10-Feb-18 14:03 35.169607 -119.040944 328 31336ft 386kts
10-Feb-18 14:04 35.244138 -119.092623 328 32559ft 382kts
10-Feb-18 14:06 35.317005 -119.143273 328 33850ft 372kts
10-Feb-18 14:07 35.397294 -119.199227 328 34753ft 372kts
10-Feb-18 14:08 35.482556 -119.247734 341 35615ft 376kts
10-Feb-18 14:09 35.578461 -119.279955 341 35918ft 385kts
10-Feb-18 14:10 35.676282 -119.313492 341 35929ft 386kts
10-Feb-18 14:11 35.774171 -119.347182 340 35936ft 384kts
10-Feb-18 14:12 35.869673 -119.380141 340 35921ft 380kts
10-Feb-18 14:13 35.962495 -119.412253 340 35929ft 381kts
10-Feb-18 14:14 36.058788 -119.445646 340 35927ft 381kts
10-Feb-18 14:15 36.151814 -119.477905 340 35918ft 381kts
10-Feb-18 14:16 36.248568 -119.511589 340 35919ft 381kts
10-Feb-18 14:17 36.345292 -119.545383 340 35911ft 376kts
10-Feb-18 14:18 36.442022 -119.579279 340 35929ft 377kts
10-Feb-18 14:19 36.538250 -119.613077 340 35927ft 377kts
10-Feb-18 14:20 36.631384 -119.645874 340 35918ft 377kts
10-Feb-18 14:21 36.720542 -119.677043 339 35919ft 377kts
10-Feb-18 14:22 36.808631 -119.708155 339 35920ft 373kts
10-Feb-18 14:23 36.895156 -119.738850 339 35918ft 374kts
10-Feb-18 14:24 36.983014 -119.770084 339 35918ft 374kts
10-Feb-18 14:25 37.069504 -119.800908 339 35921ft 374kts
10-Feb-18 14:26 37.148281 -119.828961 339 35927ft 374kts
10-Feb-18 14:27 37.237138 -119.860726 339 35927ft 374kts
10-Feb-18 14:28 37.326294 -119.892717 339 35924ft 371kts
10-Feb-18 14:29 37.416037 -119.925010 339 35928ft 372kts
10-Feb-18 14:30 37.505924 -119.957431 339 35927ft 371kts
10-Feb-18 14:31 37.599973 -119.991439 339 35937ft 371kts
10-Feb-18 14:32 37.691092 -120.024474 339 35959ft 371kts
10-Feb-18 14:33 37.784501 -120.058426 339 35972ft 369kts
10-Feb-18 14:34 37.877040 -120.092161 339 35962ft 369kts
10-Feb-18 14:35 37.970194 -120.126846 339 35963ft 370kts
10-Feb-18 14:36 38.063635 -120.160586 339 35964ft 370kts
10-Feb-18 14:37 38.157713 -120.194399 339 35965ft 370kts
10-Feb-18 14:38 38.252250 -120.228529 339 35964ft 370kts
10-Feb-18 14:39 38.335090 -120.258534 339 35951ft 365kts
10-Feb-18 14:40 38.428875 -120.292606 339 35949ft 368kts
10-Feb-18 14:41 38.522430 -120.326677 339 35964ft 368kts
10-Feb-18 14:42 38.615992 -120.360844 339 35983ft 368kts
10-Feb-18 14:43 38.709735 -120.395170 339 35982ft 368kts
10-Feb-18 14:44 38.802379 -120.429177 339 35983ft 364kts
10-Feb-18 14:45 38.894819 -120.463221 339 35987ft 365kts
10-Feb-18 14:46 38.986520 -120.497071 339 36012ft 364kts
10-Feb-18 14:47 39.080089 -120.531710 339 36068ft 365kts
10-Feb-18 14:48 39.173737 -120.566353 339 36066ft 365kts
10-Feb-18 14:49 39.268036 -120.601432 339 36069ft 364kts
10-Feb-18 14:50 39.361572 -120.636347 339 36062ft 362kts
10-Feb-18 14:51 39.454665 -120.670890 338 36066ft 362kts
10-Feb-18 14:52 39.547861 -120.705748 338 36064ft 362kts
10-Feb-18 14:53 39.641093 -120.740834 338 36065ft 362kts
10-Feb-18 14:54 39.734503 -120.776097 338 36068ft 366kts
10-Feb-18 14:55 39.827143 -120.811148 338 36060ft 362kts
10-Feb-18 14:56 39.919619 -120.846256 338 36196ft 362kts
10-Feb-18 14:57 40.011202 -120.881114 338 36213ft 362kts
10-Feb-18 14:58 40.101366 -120.915529 338 36211ft 362kts
10-Feb-18 14:59 40.191689 -120.949970 338 36212ft 362kts
10-Feb-18 15:00 40.283829 -120.985317 338 36219ft 360kts
10-Feb-18 15:01 40.374980 -121.020408 338 36210ft 359kts
10-Feb-18 15:02 40.467113 -121.055970 338 36211ft 359kts
10-Feb-18 15:03 40.557939 -121.091130 338 36211ft 359kts
10-Feb-18 15:04 40.649623 -121.126722 338 36211ft 359kts
10-Feb-18 15:05 40.742145 -121.162742 338 36211ft 359kts
10-Feb-18 15:06 40.831517 -121.197634 338 36209ft 358kts
10-Feb-18 15:07 40.920892 -121.232629 338 36211ft 358kts
10-Feb-18 15:08 41.011305 -121.268135 338 36219ft 361kts
10-Feb-18 15:09 41.102934 -121.304210 338 36218ft 360kts
10-Feb-18 15:10 41.195651 -121.340695 338 36221ft 360kts
10-Feb-18 15:11 41.288231 -121.377349 339 36226ft 357kts
10-Feb-18 15:12 41.380347 -121.413952 339 36220ft 357kts
10-Feb-18 15:13 41.470092 -121.449964 338 36220ft 357kts
10-Feb-18 15:14 41.561423 -121.486774 338 36201ft 357kts
10-Feb-18 15:15 41.653286 -121.523836 338 36240ft 357kts
10-Feb-18 15:16 41.745207 -121.561024 338 36238ft 357kts
10-Feb-18 15:17 41.834923 -121.597426 339 36237ft 356kts
10-Feb-18 15:18 41.924184 -121.633751 339 36239ft 356kts
10-Feb-18 15:19 42.012442 -121.669459 338 36240ft 356kts
10-Feb-18 15:20 42.101001 -121.705535 338 36238ft 356kts
10-Feb-18 15:21 42.188407 -121.744333 335 36241ft 354kts
10-Feb-18 15:22 42.275564 -121.787999 336 36244ft 354kts
10-Feb-18 15:23 42.362080 -121.831165 336 36237ft 353kts
10-Feb-18 15:24 42.449150 -121.874716 336 36239ft 353kts
10-Feb-18 15:25 42.535852 -121.918209 336 36238ft 353kts
10-Feb-18 15:26 42.621559 -121.961329 336 36238ft 353kts
10-Feb-18 15:27 42.708089 -122.004993 336 36238ft 353kts
10-Feb-18 15:28 42.795543 -122.049250 336 36240ft 351kts
10-Feb-18 15:29 42.880893 -122.092582 336 36238ft 352kts
10-Feb-18 15:30 42.969133 -122.137538 336 36238ft 351kts
10-Feb-18 15:31 43.056706 -122.182302 336 36238ft 351kts
10-Feb-18 15:32 43.142991 -122.226441 336 36323ft 352kts
10-Feb-18 15:33 43.230372 -122.271316 336 36318ft 353kts
10-Feb-18 15:34 43.318709 -122.316878 336 36319ft 352kts
10-Feb-18 15:35 43.406736 -122.362431 336 36321ft 352kts
10-Feb-18 15:36 43.494526 -122.408003 336 36321ft 352kts
10-Feb-18 15:37 43.581492 -122.453285 336 36321ft 352kts
10-Feb-18 15:38 43.669330 -122.499166 336 36326ft 352kts
10-Feb-18 15:39 43.756840 -122.545019 336 36369ft 352kts
10-Feb-18 15:40 43.844039 -122.590848 336 36364ft 351kts
10-Feb-18 15:41 43.931058 -122.636730 336 36367ft 351kts
10-Feb-18 15:42 44.015188 -122.680799 336 36368ft 351kts
10-Feb-18 15:43 44.100454 -122.725891 335 36366ft 351kts
10-Feb-18 15:44 44.186008 -122.750049 356 34279ft 352kts
10-Feb-18 15:45 44.275419 -122.740543 356 31637ft 347kts
10-Feb-18 15:46 44.365203 -122.731617 357 29095ft 357kts
10-Feb-18 15:47 44.458288 -122.722368 358 27361ft 354kts
10-Feb-18 15:48 44.548253 -122.713417 359 25381ft 348kts
10-Feb-18 15:49 44.635154 -122.704763 1 23216ft 335kts
10-Feb-18 15:49 44.703790 -122.697877 2 21241ft 320kts
10-Feb-18 15:51 44.798247 -122.688373 2 18602ft 320kts
10-Feb-18 15:51 44.866270 -122.681524 3 16682ft 305kts
10-Feb-18 15:53 44.954443 -122.672616 3 15044ft 290kts
10-Feb-18 15:53 45.012341 -122.666769 3 13739ft 280kts
10-Feb-18 15:54 45.081779 -122.659704 5 11328ft 272kts
10-Feb-18 15:55 45.147005 -122.653089 5 9609ft 246kts
10-Feb-18 15:56 45.211577 -122.646517 6 8965ft 225kts
10-Feb-18 15:57 45.267070 -122.626566 31 8708ft 212kts
10-Feb-18 15:58 45.310896 -122.587405 28 7369ft 214kts
10-Feb-18 15:59 45.348550 -122.537801 44 6115ft 211kts
10-Feb-18 16:00 45.386671 -122.488340 34 4627ft 209kts
10-Feb-18 16:01 45.426158 -122.450256 32 3735ft 184kts
10-Feb-18 16:02 45.464846 -122.423247 17 2943ft 185kts
10-Feb-18 16:03 45.503747 -122.413679 347 2570ft 172kts
10-Feb-18 16:04 45.526410 -122.445418 300 2044ft 149kts
10-Feb-18 16:05 45.541881 -122.484141 302 1479ft 145kts
10-Feb-18 16:06 45.554889 -122.518441 300 1024ft 137kts
10-Feb-18 16:07 45.567663 -122.550712 299 564ft 133kts
10-Feb-18 16:08 45.579274 -122.580914 301 117ft 121kts
10-Feb-18 16:09 45.587762 -122.601722 336 36ft 11kts
10-Feb-18 16:10 45.588744 -122.602342 339 36ft 3kts
10-Feb-18 16:11 45.590719 -122.601118 26 36ft 11kts
10-Feb-18 16:13 45.591049 -122.598575 149 36ft 2kts
10-Feb-18 16:14 45.590395 -122.598970 205 36ft 0kts
10-Feb-18 16:15 45.590395 -122.598970 205 36ft 0kts

Navigation Log

Ident Type
Flight plan parsing failed, navigation log unavailable